sensor_id;sensor_type;location;lat;lon;timestamp;P1;durP1;ratioP1;P2;durP2;ratioP2
48963;SDS011;34776;48.180;16.420;2023-12-20T00:01:08;20.17;;;14.05;;
48963;SDS011;34776;48.180;16.420;2023-12-20T00:03:33;18.75;;;12.27;;
48963;SDS011;34776;48.180;16.420;2023-12-20T00:05:58;20.15;;;11.75;;
48963;SDS011;34776;48.180;16.420;2023-12-20T00:08:23;22.33;;;12.32;;
48963;SDS011;34776;48.180;16.420;2023-12-20T00:10:48;33.40;;;18.17;;
48963;SDS011;34776;48.180;16.420;2023-12-20T00:13:15;34.35;;;18.30;;
48963;SDS011;34776;48.180;16.420;2023-12-20T00:15:40;35.95;;;18.58;;
48963;SDS011;34776;48.180;16.420;2023-12-20T00:18:05;20.42;;;12.95;;
48963;SDS011;34776;48.180;16.420;2023-12-20T00:20:31;17.13;;;11.93;;
48963;SDS011;34776;48.180;16.420;2023-12-20T00:22:56;17.25;;;11.02;;
48963;SDS011;34776;48.180;16.420;2023-12-20T00:25:22;20.73;;;12.65;;
48963;SDS011;34776;48.180;16.420;2023-12-20T00:27:48;15.73;;;10.02;;
48963;SDS011;34776;48.180;16.420;2023-12-20T00:30:13;19.42;;;12.68;;
48963;SDS011;34776;48.180;16.420;2023-12-20T00:32:38;18.02;;;11.75;;
48963;SDS011;34776;48.180;16.420;2023-12-20T00:35:04;16.42;;;12.43;;
48963;SDS011;34776;48.180;16.420;2023-12-20T00:37:29;19.42;;;12.50;;
48963;SDS011;34776;48.180;16.420;2023-12-20T00:39:54;22.63;;;13.82;;
48963;SDS011;34776;48.180;16.420;2023-12-20T00:42:19;19.77;;;11.98;;
48963;SDS011;34776;48.180;16.420;2023-12-20T00:44:45;21.50;;;13.75;;
48963;SDS011;34776;48.180;16.420;2023-12-20T00:47:11;19.27;;;11.68;;
48963;SDS011;34776;48.180;16.420;2023-12-20T00:49:38;28.52;;;17.77;;
48963;SDS011;34776;48.180;16.420;2023-12-20T00:52:03;51.28;;;25.65;;
48963;SDS011;34776;48.180;16.420;2023-12-20T00:54:28;23.90;;;15.23;;
48963;SDS011;34776;48.180;16.420;2023-12-20T00:56:55;27.90;;;17.40;;
48963;SDS011;34776;48.180;16.420;2023-12-20T00:59:20;23.15;;;14.82;;
48963;SDS011;34776;48.180;16.420;2023-12-20T01:01:46;20.17;;;13.13;;
48963;SDS011;34776;48.180;16.420;2023-12-20T01:04:11;21.67;;;13.55;;
48963;SDS011;34776;48.180;16.420;2023-12-20T01:06:38;20.67;;;13.75;;
48963;SDS011;34776;48.180;16.420;2023-12-20T01:09:04;20.90;;;13.77;;
48963;SDS011;34776;48.180;16.420;2023-12-20T01:11:29;24.15;;;14.55;;
48963;SDS011;34776;48.180;16.420;2023-12-20T01:13:54;24.10;;;14.52;;
48963;SDS011;34776;48.180;16.420;2023-12-20T01:16:20;18.75;;;12.35;;
48963;SDS011;34776;48.180;16.420;2023-12-20T01:18:45;26.10;;;16.02;;
48963;SDS011;34776;48.180;16.420;2023-12-20T01:21:11;23.50;;;15.48;;
48963;SDS011;34776;48.180;16.420;2023-12-20T01:23:38;25.40;;;12.35;;
48963;SDS011;34776;48.180;16.420;2023-12-20T01:26:03;21.98;;;14.93;;
48963;SDS011;34776;48.180;16.420;2023-12-20T01:28:29;19.30;;;12.45;;
48963;SDS011;34776;48.180;16.420;2023-12-20T01:30:55;19.80;;;14.05;;
48963;SDS011;34776;48.180;16.420;2023-12-20T01:33:20;23.88;;;14.60;;
48963;SDS011;34776;48.180;16.420;2023-12-20T01:35:45;18.10;;;11.63;;
48963;SDS011;34776;48.180;16.420;2023-12-20T01:38:11;20.33;;;12.60;;
48963;SDS011;34776;48.180;16.420;2023-12-20T01:40:36;21.10;;;14.48;;
48963;SDS011;34776;48.180;16.420;2023-12-20T01:43:06;20.58;;;13.55;;
48963;SDS011;34776;48.180;16.420;2023-12-20T01:45:33;17.88;;;11.77;;
48963;SDS011;34776;48.180;16.420;2023-12-20T01:47:58;20.60;;;12.05;;
48963;SDS011;34776;48.180;16.420;2023-12-20T01:50:24;20.35;;;13.43;;
48963;SDS011;34776;48.180;16.420;2023-12-20T01:52:49;18.15;;;11.82;;
48963;SDS011;34776;48.180;16.420;2023-12-20T01:55:17;19.80;;;12.65;;
48963;SDS011;34776;48.180;16.420;2023-12-20T01:57:42;19.80;;;12.65;;
48963;SDS011;34776;48.180;16.420;2023-12-20T02:00:08;16.98;;;11.55;;
48963;SDS011;34776;48.180;16.420;2023-12-20T02:02:34;21.42;;;12.63;;
48963;SDS011;34776;48.180;16.420;2023-12-20T02:05:01;18.08;;;11.95;;
48963;SDS011;34776;48.180;16.420;2023-12-20T02:07:29;18.98;;;12.05;;
48963;SDS011;34776;48.180;16.420;2023-12-20T02:09:54;18.10;;;13.00;;
48963;SDS011;34776;48.180;16.420;2023-12-20T02:12:20;18.17;;;10.82;;
48963;SDS011;34776;48.180;16.420;2023-12-20T02:14:45;19.17;;;12.77;;
48963;SDS011;34776;48.180;16.420;2023-12-20T02:17:10;20.08;;;12.00;;
48963;SDS011;34776;48.180;16.420;2023-12-20T02:19:36;15.60;;;10.50;;
48963;SDS011;34776;48.180;16.420;2023-12-20T02:22:19;19.80;;;12.55;;
48963;SDS011;34776;48.180;16.420;2023-12-20T02:24:45;19.02;;;12.48;;
48963;SDS011;34776;48.180;16.420;2023-12-20T02:27:10;18.02;;;11.68;;
48963;SDS011;34776;48.180;16.420;2023-12-20T02:29:35;20.55;;;13.35;;
48963;SDS011;34776;48.180;16.420;2023-12-20T02:32:01;19.02;;;11.48;;
48963;SDS011;34776;48.180;16.420;2023-12-20T02:34:26;17.15;;;11.60;;
48963;SDS011;34776;48.180;16.420;2023-12-20T02:36:53;33.08;;;14.02;;
48963;SDS011;34776;48.180;16.420;2023-12-20T02:39:18;24.45;;;14.07;;
48963;SDS011;34776;48.180;16.420;2023-12-20T02:41:45;18.52;;;12.52;;
48963;SDS011;34776;48.180;16.420;2023-12-20T02:44:11;20.95;;;13.57;;
48963;SDS011;34776;48.180;16.420;2023-12-20T02:46:36;22.73;;;14.27;;
48963;SDS011;34776;48.180;16.420;2023-12-20T02:49:01;40.83;;;14.63;;
48963;SDS011;34776;48.180;16.420;2023-12-20T02:51:26;22.83;;;15.00;;
48963;SDS011;34776;48.180;16.420;2023-12-20T02:53:52;20.48;;;14.25;;
48963;SDS011;34776;48.180;16.420;2023-12-20T02:56:17;19.85;;;13.20;;
48963;SDS011;34776;48.180;16.420;2023-12-20T02:58:42;26.00;;;13.07;;
48963;SDS011;34776;48.180;16.420;2023-12-20T03:01:08;20.17;;;13.52;;
48963;SDS011;34776;48.180;16.420;2023-12-20T03:03:33;16.55;;;11.43;;
48963;SDS011;34776;48.180;16.420;2023-12-20T03:05:58;19.00;;;11.68;;
48963;SDS011;34776;48.180;16.420;2023-12-20T03:08:23;15.82;;;11.98;;
48963;SDS011;34776;48.180;16.420;2023-12-20T03:10:49;18.85;;;12.00;;
48963;SDS011;34776;48.180;16.420;2023-12-20T03:13:14;16.80;;;11.93;;
48963;SDS011;34776;48.180;16.420;2023-12-20T03:15:39;15.98;;;11.30;;
48963;SDS011;34776;48.180;16.420;2023-12-20T03:18:04;18.25;;;11.80;;
48963;SDS011;34776;48.180;16.420;2023-12-20T03:20:30;15.90;;;10.38;;
48963;SDS011;34776;48.180;16.420;2023-12-20T03:22:59;14.90;;;10.15;;
48963;SDS011;34776;48.180;16.420;2023-12-20T03:25:24;13.13;;;9.05;;
48963;SDS011;34776;48.180;16.420;2023-12-20T03:27:49;15.23;;;10.15;;
48963;SDS011;34776;48.180;16.420;2023-12-20T03:30:14;13.00;;;9.57;;
48963;SDS011;34776;48.180;16.420;2023-12-20T03:32:40;14.75;;;10.55;;
48963;SDS011;34776;48.180;16.420;2023-12-20T03:35:05;15.70;;;10.90;;
48963;SDS011;34776;48.180;16.420;2023-12-20T03:37:30;15.45;;;11.02;;
48963;SDS011;34776;48.180;16.420;2023-12-20T03:39:55;16.00;;;10.60;;
48963;SDS011;34776;48.180;16.420;2023-12-20T03:42:21;14.38;;;10.45;;
48963;SDS011;34776;48.180;16.420;2023-12-20T03:44:46;17.20;;;11.63;;
48963;SDS011;34776;48.180;16.420;2023-12-20T03:47:11;13.65;;;9.52;;
48963;SDS011;34776;48.180;16.420;2023-12-20T03:49:36;17.80;;;11.73;;
48963;SDS011;34776;48.180;16.420;2023-12-20T03:52:03;15.70;;;11.80;;
48963;SDS011;34776;48.180;16.420;2023-12-20T03:54:28;16.65;;;11.43;;
48963;SDS011;34776;48.180;16.420;2023-12-20T03:56:54;17.27;;;12.63;;
48963;SDS011;34776;48.180;16.420;2023-12-20T03:59:19;16.83;;;12.30;;
48963;SDS011;34776;48.180;16.420;2023-12-20T04:01:44;17.08;;;12.10;;
48963;SDS011;34776;48.180;16.420;2023-12-20T04:04:10;16.00;;;11.73;;
48963;SDS011;34776;48.180;16.420;2023-12-20T04:06:35;14.82;;;10.98;;
48963;SDS011;34776;48.180;16.420;2023-12-20T04:09:00;15.27;;;11.88;;
48963;SDS011;34776;48.180;16.420;2023-12-20T04:11:26;16.58;;;11.85;;
48963;SDS011;34776;48.180;16.420;2023-12-20T04:13:51;15.93;;;10.88;;
48963;SDS011;34776;48.180;16.420;2023-12-20T04:16:16;16.33;;;11.50;;
48963;SDS011;34776;48.180;16.420;2023-12-20T04:18:41;17.05;;;12.18;;
48963;SDS011;34776;48.180;16.420;2023-12-20T04:21:06;13.50;;;9.45;;
48963;SDS011;34776;48.180;16.420;2023-12-20T04:23:32;16.15;;;11.50;;
48963;SDS011;34776;48.180;16.420;2023-12-20T04:25:57;15.77;;;10.82;;
48963;SDS011;34776;48.180;16.420;2023-12-20T04:28:22;16.80;;;10.88;;
48963;SDS011;34776;48.180;16.420;2023-12-20T04:30:47;17.45;;;11.13;;
48963;SDS011;34776;48.180;16.420;2023-12-20T04:33:13;18.13;;;11.75;;
48963;SDS011;34776;48.180;16.420;2023-12-20T04:35:38;15.82;;;11.75;;
48963;SDS011;34776;48.180;16.420;2023-12-20T04:38:05;15.50;;;11.25;;
48963;SDS011;34776;48.180;16.420;2023-12-20T04:40:31;18.20;;;11.65;;
48963;SDS011;34776;48.180;16.420;2023-12-20T04:42:56;11.82;;;9.05;;
48963;SDS011;34776;48.180;16.420;2023-12-20T04:45:21;16.58;;;11.88;;
48963;SDS011;34776;48.180;16.420;2023-12-20T04:47:46;16.30;;;12.05;;
48963;SDS011;34776;48.180;16.420;2023-12-20T04:50:13;14.27;;;10.25;;
48963;SDS011;34776;48.180;16.420;2023-12-20T04:52:39;16.60;;;11.70;;
48963;SDS011;34776;48.180;16.420;2023-12-20T04:55:04;15.13;;;11.15;;
48963;SDS011;34776;48.180;16.420;2023-12-20T04:57:30;14.45;;;8.85;;
48963;SDS011;34776;48.180;16.420;2023-12-20T04:59:56;16.63;;;10.80;;
48963;SDS011;34776;48.180;16.420;2023-12-20T05:02:21;13.68;;;10.18;;
48963;SDS011;34776;48.180;16.420;2023-12-20T05:04:47;16.27;;;11.15;;
48963;SDS011;34776;48.180;16.420;2023-12-20T05:07:15;19.08;;;12.40;;
48963;SDS011;34776;48.180;16.420;2023-12-20T05:09:40;15.93;;;11.60;;
48963;SDS011;34776;48.180;16.420;2023-12-20T05:12:07;13.23;;;9.93;;
48963;SDS011;34776;48.180;16.420;2023-12-20T05:14:33;17.20;;;10.60;;
48963;SDS011;34776;48.180;16.420;2023-12-20T05:16:58;16.42;;;10.20;;
48963;SDS011;34776;48.180;16.420;2023-12-20T05:19:25;18.02;;;11.30;;
48963;SDS011;34776;48.180;16.420;2023-12-20T05:21:51;11.90;;;9.93;;
48963;SDS011;34776;48.180;16.420;2023-12-20T05:24:16;22.08;;;12.45;;
48963;SDS011;34776;48.180;16.420;2023-12-20T05:26:41;22.60;;;14.27;;
48963;SDS011;34776;48.180;16.420;2023-12-20T05:29:07;14.43;;;10.55;;
48963;SDS011;34776;48.180;16.420;2023-12-20T05:31:32;18.13;;;10.93;;
48963;SDS011;34776;48.180;16.420;2023-12-20T05:33:58;18.02;;;11.13;;
48963;SDS011;34776;48.180;16.420;2023-12-20T05:36:23;14.25;;;10.07;;
48963;SDS011;34776;48.180;16.420;2023-12-20T05:38:48;13.68;;;9.60;;
48963;SDS011;34776;48.180;16.420;2023-12-20T05:41:13;17.73;;;10.88;;
48963;SDS011;34776;48.180;16.420;2023-12-20T05:43:39;15.05;;;10.25;;
48963;SDS011;34776;48.180;16.420;2023-12-20T05:46:05;16.92;;;10.88;;
48963;SDS011;34776;48.180;16.420;2023-12-20T05:48:30;18.15;;;12.43;;
48963;SDS011;34776;48.180;16.420;2023-12-20T05:50:55;18.77;;;10.68;;
48963;SDS011;34776;48.180;16.420;2023-12-20T05:53:20;22.73;;;12.25;;
48963;SDS011;34776;48.180;16.420;2023-12-20T05:55:45;22.38;;;11.00;;
48963;SDS011;34776;48.180;16.420;2023-12-20T05:58:11;21.52;;;11.02;;
48963;SDS011;34776;48.180;16.420;2023-12-20T06:00:36;14.82;;;9.60;;
48963;SDS011;34776;48.180;16.420;2023-12-20T06:03:01;14.65;;;10.13;;
48963;SDS011;34776;48.180;16.420;2023-12-20T06:05:26;15.80;;;10.00;;
48963;SDS011;34776;48.180;16.420;2023-12-20T06:07:52;16.95;;;11.32;;
48963;SDS011;34776;48.180;16.420;2023-12-20T06:10:17;15.55;;;10.38;;
48963;SDS011;34776;48.180;16.420;2023-12-20T06:12:43;17.65;;;11.18;;
48963;SDS011;34776;48.180;16.420;2023-12-20T06:15:08;13.65;;;9.07;;
48963;SDS011;34776;48.180;16.420;2023-12-20T06:17:33;16.08;;;9.80;;
48963;SDS011;34776;48.180;16.420;2023-12-20T06:20:00;17.55;;;8.65;;
48963;SDS011;34776;48.180;16.420;2023-12-20T06:22:25;12.40;;;9.35;;
48963;SDS011;34776;48.180;16.420;2023-12-20T06:24:50;14.02;;;9.98;;
48963;SDS011;34776;48.180;16.420;2023-12-20T06:27:15;11.85;;;8.63;;
48963;SDS011;34776;48.180;16.420;2023-12-20T06:29:40;15.63;;;10.23;;
48963;SDS011;34776;48.180;16.420;2023-12-20T06:32:06;13.70;;;7.57;;
48963;SDS011;34776;48.180;16.420;2023-12-20T06:34:33;17.10;;;8.77;;
48963;SDS011;34776;48.180;16.420;2023-12-20T06:44:43;7.47;;;5.30;;
48963;SDS011;34776;48.180;16.420;2023-12-20T07:50:25;4.57;;;3.40;;
48963;SDS011;34776;48.180;16.420;2023-12-20T07:52:51;6.38;;;3.88;;
48963;SDS011;34776;48.180;16.420;2023-12-20T07:55:17;7.00;;;3.45;;
48963;SDS011;34776;48.180;16.420;2023-12-20T07:57:42;4.63;;;3.38;;
48963;SDS011;34776;48.180;16.420;2023-12-20T08:00:08;6.47;;;3.10;;
48963;SDS011;34776;48.180;16.420;2023-12-20T08:02:33;4.70;;;2.92;;
48963;SDS011;34776;48.180;16.420;2023-12-20T08:04:59;4.75;;;3.03;;
48963;SDS011;34776;48.180;16.420;2023-12-20T11:44:46;5.30;;;2.88;;
48963;SDS011;34776;48.180;16.420;2023-12-20T11:49:47;3.58;;;1.98;;
48963;SDS011;34776;48.180;16.420;2023-12-20T11:52:14;2.65;;;2.25;;
48963;SDS011;34776;48.180;16.420;2023-12-20T12:23:02;3.47;;;1.58;;
48963;SDS011;34776;48.180;16.420;2023-12-20T13:37:12;2.20;;;1.75;;
48963;SDS011;34776;48.180;16.420;2023-12-20T13:42:13;3.03;;;1.50;;
48963;SDS011;34776;48.180;16.420;2023-12-20T13:44:38;1.63;;;1.23;;
48963;SDS011;34776;48.180;16.420;2023-12-20T13:47:04;2.20;;;1.77;;
48963;SDS011;34776;48.180;16.420;2023-12-20T15:05:07;1.70;;;1.50;;
48963;SDS011;34776;48.180;16.420;2023-12-20T15:07:34;1.90;;;1.50;;
48963;SDS011;34776;48.180;16.420;2023-12-20T15:10:00;1.75;;;1.65;;
48963;SDS011;34776;48.180;16.420;2023-12-20T15:12:27;2.80;;;2.17;;
48963;SDS011;34776;48.180;16.420;2023-12-20T15:17:27;1.85;;;1.63;;
48963;SDS011;34776;48.180;16.420;2023-12-20T15:19:53;2.28;;;2.00;;
48963;SDS011;34776;48.180;16.420;2023-12-20T15:22:19;1.80;;;1.70;;
48963;SDS011;34776;48.180;16.420;2023-12-20T15:24:45;1.88;;;1.75;;
48963;SDS011;34776;48.180;16.420;2023-12-20T15:27:11;1.50;;;1.40;;
48963;SDS011;34776;48.180;16.420;2023-12-20T15:29:36;1.63;;;1.53;;
48963;SDS011;34776;48.180;16.420;2023-12-20T15:32:02;2.92;;;1.70;;
48963;SDS011;34776;48.180;16.420;2023-12-20T15:34:29;1.65;;;1.55;;
48963;SDS011;34776;48.180;16.420;2023-12-20T15:36:54;2.47;;;2.28;;
48963;SDS011;34776;48.180;16.420;2023-12-20T15:39:20;5.40;;;1.70;;
48963;SDS011;34776;48.180;16.420;2023-12-20T15:41:45;1.63;;;1.52;;
48963;SDS011;34776;48.180;16.420;2023-12-20T15:44:10;2.00;;;1.80;;
48963;SDS011;34776;48.180;16.420;2023-12-20T15:46:35;2.20;;;2.05;;
48963;SDS011;34776;48.180;16.420;2023-12-20T15:49:01;2.17;;;1.92;;
48963;SDS011;34776;48.180;16.420;2023-12-20T15:51:27;3.22;;;2.05;;
48963;SDS011;34776;48.180;16.420;2023-12-20T15:53:53;2.28;;;1.80;;
48963;SDS011;34776;48.180;16.420;2023-12-20T15:56:19;2.13;;;1.88;;
48963;SDS011;34776;48.180;16.420;2023-12-20T15:58:45;2.28;;;1.75;;
48963;SDS011;34776;48.180;16.420;2023-12-20T16:01:10;2.85;;;1.95;;
48963;SDS011;34776;48.180;16.420;2023-12-20T16:03:36;5.57;;;3.85;;
48963;SDS011;34776;48.180;16.420;2023-12-20T16:06:03;2.45;;;2.22;;
48963;SDS011;34776;48.180;16.420;2023-12-20T16:08:30;3.60;;;2.20;;
48963;SDS011;34776;48.180;16.420;2023-12-20T16:10:55;3.72;;;2.28;;
48963;SDS011;34776;48.180;16.420;2023-12-20T16:13:21;3.75;;;1.77;;
48963;SDS011;34776;48.180;16.420;2023-12-20T16:15:46;2.47;;;2.05;;
48963;SDS011;34776;48.180;16.420;2023-12-20T16:18:11;3.95;;;2.40;;
48963;SDS011;34776;48.180;16.420;2023-12-20T16:20:37;2.28;;;2.05;;
48963;SDS011;34776;48.180;16.420;2023-12-20T16:23:02;2.50;;;2.30;;
48963;SDS011;34776;48.180;16.420;2023-12-20T16:25:27;2.13;;;2.03;;
48963;SDS011;34776;48.180;16.420;2023-12-20T16:27:53;2.33;;;1.92;;
48963;SDS011;34776;48.180;16.420;2023-12-20T16:30:18;7.30;;;1.92;;
48963;SDS011;34776;48.180;16.420;2023-12-20T16:32:43;2.10;;;1.90;;
48963;SDS011;34776;48.180;16.420;2023-12-20T16:35:11;2.53;;;2.33;;
48963;SDS011;34776;48.180;16.420;2023-12-20T16:37:36;1.90;;;1.80;;
48963;SDS011;34776;48.180;16.420;2023-12-20T16:40:04;1.85;;;1.73;;
48963;SDS011;34776;48.180;16.420;2023-12-20T16:42:53;2.17;;;1.98;;
48963;SDS011;34776;48.180;16.420;2023-12-20T16:45:22;2.00;;;1.80;;
48963;SDS011;34776;48.180;16.420;2023-12-20T16:47:48;4.03;;;2.00;;
48963;SDS011;34776;48.180;16.420;2023-12-20T16:50:18;5.32;;;2.50;;
48963;SDS011;34776;48.180;16.420;2023-12-20T16:52:43;3.97;;;2.63;;
48963;SDS011;34776;48.180;16.420;2023-12-20T16:55:11;3.60;;;2.25;;
48963;SDS011;34776;48.180;16.420;2023-12-20T16:57:38;2.55;;;2.00;;
48963;SDS011;34776;48.180;16.420;2023-12-20T17:00:03;2.47;;;2.25;;
48963;SDS011;34776;48.180;16.420;2023-12-20T17:02:29;2.53;;;2.08;;
48963;SDS011;34776;48.180;16.420;2023-12-20T17:04:55;1.95;;;1.80;;
48963;SDS011;34776;48.180;16.420;2023-12-20T17:07:21;6.55;;;2.33;;
48963;SDS011;34776;48.180;16.420;2023-12-20T17:09:47;4.45;;;2.00;;
48963;SDS011;34776;48.180;16.420;2023-12-20T17:12:15;2.10;;;1.90;;
48963;SDS011;34776;48.180;16.420;2023-12-20T17:14:40;2.50;;;1.88;;
48963;SDS011;34776;48.180;16.420;2023-12-20T17:17:05;2.20;;;1.77;;
48963;SDS011;34776;48.180;16.420;2023-12-20T17:19:33;2.20;;;2.00;;
48963;SDS011;34776;48.180;16.420;2023-12-20T17:21:58;1.63;;;1.52;;
48963;SDS011;34776;48.180;16.420;2023-12-20T17:24:24;3.33;;;1.83;;
48963;SDS011;34776;48.180;16.420;2023-12-20T17:26:51;3.22;;;2.03;;
48963;SDS011;34776;48.180;16.420;2023-12-20T17:29:17;2.15;;;1.95;;
48963;SDS011;34776;48.180;16.420;2023-12-20T17:31:43;2.60;;;1.70;;
48963;SDS011;34776;48.180;16.420;2023-12-20T17:34:08;3.00;;;2.00;;
48963;SDS011;34776;48.180;16.420;2023-12-20T17:36:36;2.42;;;1.88;;
48963;SDS011;34776;48.180;16.420;2023-12-20T17:39:01;1.60;;;1.50;;
48963;SDS011;34776;48.180;16.420;2023-12-20T17:41:26;2.92;;;2.10;;
48963;SDS011;34776;48.180;16.420;2023-12-20T17:43:52;2.72;;;2.40;;
48963;SDS011;34776;48.180;16.420;2023-12-20T17:46:17;4.00;;;1.97;;
48963;SDS011;34776;48.180;16.420;2023-12-20T17:48:42;2.53;;;1.73;;
48963;SDS011;34776;48.180;16.420;2023-12-20T17:51:07;3.33;;;1.95;;
48963;SDS011;34776;48.180;16.420;2023-12-20T17:53:33;3.05;;;2.08;;
48963;SDS011;34776;48.180;16.420;2023-12-20T17:56:00;3.80;;;2.00;;
48963;SDS011;34776;48.180;16.420;2023-12-20T17:58:25;1.70;;;1.48;;
48963;SDS011;34776;48.180;16.420;2023-12-20T18:00:50;2.47;;;1.88;;
48963;SDS011;34776;48.180;16.420;2023-12-20T18:03:17;3.97;;;1.75;;
48963;SDS011;34776;48.180;16.420;2023-12-20T18:05:42;1.90;;;1.70;;
48963;SDS011;34776;48.180;16.420;2023-12-20T18:08:07;1.63;;;1.52;;
48963;SDS011;34776;48.180;16.420;2023-12-20T18:10:32;2.20;;;2.00;;
48963;SDS011;34776;48.180;16.420;2023-12-20T18:12:57;3.28;;;1.90;;
48963;SDS011;34776;48.180;16.420;2023-12-20T18:15:23;4.20;;;1.75;;
48963;SDS011;34776;48.180;16.420;2023-12-20T18:17:48;2.13;;;1.90;;
48963;SDS011;34776;48.180;16.420;2023-12-20T18:20:13;4.40;;;1.65;;
48963;SDS011;34776;48.180;16.420;2023-12-20T18:22:40;3.25;;;2.03;;
48963;SDS011;34776;48.180;16.420;2023-12-20T18:25:06;4.55;;;1.90;;
48963;SDS011;34776;48.180;16.420;2023-12-20T18:27:32;1.73;;;1.63;;
48963;SDS011;34776;48.180;16.420;2023-12-20T18:30:00;5.10;;;2.08;;
48963;SDS011;34776;48.180;16.420;2023-12-20T18:32:32;2.95;;;2.10;;
48963;SDS011;34776;48.180;16.420;2023-12-20T18:34:58;9.32;;;2.22;;
48963;SDS011;34776;48.180;16.420;2023-12-20T18:37:23;2.88;;;1.77;;
48963;SDS011;34776;48.180;16.420;2023-12-20T18:39:48;2.95;;;1.73;;
48963;SDS011;34776;48.180;16.420;2023-12-20T18:42:15;3.78;;;1.95;;
48963;SDS011;34776;48.180;16.420;2023-12-20T18:44:41;2.83;;;1.98;;
48963;SDS011;34776;48.180;16.420;2023-12-20T18:49:41;1.63;;;1.52;;
48963;SDS011;34776;48.180;16.420;2023-12-20T18:52:25;3.17;;;1.75;;
48963;SDS011;34776;48.180;16.420;2023-12-20T18:54:51;4.05;;;2.13;;
48963;SDS011;34776;48.180;16.420;2023-12-20T18:57:17;5.15;;;2.08;;
48963;SDS011;34776;48.180;16.420;2023-12-20T18:59:42;2.83;;;1.80;;
48963;SDS011;34776;48.180;16.420;2023-12-20T19:02:08;3.00;;;2.17;;
48963;SDS011;34776;48.180;16.420;2023-12-20T19:04:35;10.88;;;3.83;;
48963;SDS011;34776;48.180;16.420;2023-12-20T19:07:00;3.47;;;1.98;;
48963;SDS011;34776;48.180;16.420;2023-12-20T19:09:26;3.95;;;2.85;;
48963;SDS011;34776;48.180;16.420;2023-12-20T19:11:51;4.53;;;2.13;;
48963;SDS011;34776;48.180;16.420;2023-12-20T19:14:16;4.35;;;2.08;;
48963;SDS011;34776;48.180;16.420;2023-12-20T19:16:41;3.10;;;1.98;;
48963;SDS011;34776;48.180;16.420;2023-12-20T19:19:07;2.00;;;1.80;;
48963;SDS011;34776;48.180;16.420;2023-12-20T19:21:32;2.80;;;2.05;;
48963;SDS011;34776;48.180;16.420;2023-12-20T19:24:00;3.67;;;2.33;;
48963;SDS011;34776;48.180;16.420;2023-12-20T19:26:25;4.82;;;2.50;;
48963;SDS011;34776;48.180;16.420;2023-12-20T19:28:52;3.45;;;2.05;;
48963;SDS011;34776;48.180;16.420;2023-12-20T19:31:17;3.50;;;2.20;;
48963;SDS011;34776;48.180;16.420;2023-12-20T19:33:44;1.52;;;1.42;;
48963;SDS011;34776;48.180;16.420;2023-12-20T19:36:12;2.03;;;1.60;;
48963;SDS011;34776;48.180;16.420;2023-12-20T19:38:38;7.20;;;1.95;;
48963;SDS011;34776;48.180;16.420;2023-12-20T19:41:03;2.43;;;1.90;;
48963;SDS011;34776;48.180;16.420;2023-12-20T19:43:29;2.22;;;2.00;;
48963;SDS011;34776;48.180;16.420;2023-12-20T19:45:54;5.18;;;1.95;;
48963;SDS011;34776;48.180;16.420;2023-12-20T19:48:19;4.32;;;2.30;;
48963;SDS011;34776;48.180;16.420;2023-12-20T19:50:45;2.90;;;1.98;;
48963;SDS011;34776;48.180;16.420;2023-12-20T19:53:11;3.17;;;2.28;;
48963;SDS011;34776;48.180;16.420;2023-12-20T19:55:37;5.03;;;2.45;;
48963;SDS011;34776;48.180;16.420;2023-12-20T19:58:02;4.30;;;2.67;;
48963;SDS011;34776;48.180;16.420;2023-12-20T20:00:30;4.50;;;2.33;;
48963;SDS011;34776;48.180;16.420;2023-12-20T20:02:56;6.93;;;2.33;;
48963;SDS011;34776;48.180;16.420;2023-12-20T20:05:21;4.15;;;2.35;;
48963;SDS011;34776;48.180;16.420;2023-12-20T20:07:46;3.28;;;2.03;;
48963;SDS011;34776;48.180;16.420;2023-12-20T20:10:11;2.95;;;2.08;;
48963;SDS011;34776;48.180;16.420;2023-12-20T20:12:38;2.55;;;2.13;;
48963;SDS011;34776;48.180;16.420;2023-12-20T20:15:03;2.95;;;1.83;;
48963;SDS011;34776;48.180;16.420;2023-12-20T20:17:29;2.35;;;2.10;;
48963;SDS011;34776;48.180;16.420;2023-12-20T20:19:54;4.13;;;2.10;;
48963;SDS011;34776;48.180;16.420;2023-12-20T20:22:20;2.95;;;2.40;;
48963;SDS011;34776;48.180;16.420;2023-12-20T20:24:45;3.25;;;2.30;;
48963;SDS011;34776;48.180;16.420;2023-12-20T20:27:10;2.55;;;2.33;;
48963;SDS011;34776;48.180;16.420;2023-12-20T20:29:36;5.47;;;2.83;;
48963;SDS011;34776;48.180;16.420;2023-12-20T20:32:01;4.97;;;2.40;;
48963;SDS011;34776;48.180;16.420;2023-12-20T20:34:26;3.40;;;2.33;;
48963;SDS011;34776;48.180;16.420;2023-12-20T20:36:53;6.57;;;3.58;;
48963;SDS011;34776;48.180;16.420;2023-12-20T20:39:18;5.43;;;2.92;;
48963;SDS011;34776;48.180;16.420;2023-12-20T20:41:43;4.30;;;2.42;;
48963;SDS011;34776;48.180;16.420;2023-12-20T20:44:08;2.95;;;2.20;;
48963;SDS011;34776;48.180;16.420;2023-12-20T20:46:34;4.43;;;2.53;;
48963;SDS011;34776;48.180;16.420;2023-12-20T20:48:59;2.60;;;2.25;;
48963;SDS011;34776;48.180;16.420;2023-12-20T20:51:25;3.35;;;2.15;;
48963;SDS011;34776;48.180;16.420;2023-12-20T20:53:50;4.50;;;1.90;;
48963;SDS011;34776;48.180;16.420;2023-12-20T20:56:16;3.63;;;2.67;;
48963;SDS011;34776;48.180;16.420;2023-12-20T20:58:41;6.38;;;2.85;;
48963;SDS011;34776;48.180;16.420;2023-12-20T21:01:06;3.38;;;2.00;;
48963;SDS011;34776;48.180;16.420;2023-12-20T21:03:32;4.80;;;2.50;;
48963;SDS011;34776;48.180;16.420;2023-12-20T21:05:57;3.40;;;1.88;;
48963;SDS011;34776;48.180;16.420;2023-12-20T21:08:23;4.15;;;2.67;;
48963;SDS011;34776;48.180;16.420;2023-12-20T21:10:48;4.03;;;2.10;;
48963;SDS011;34776;48.180;16.420;2023-12-20T21:15:49;3.10;;;1.90;;
48963;SDS011;34776;48.180;16.420;2023-12-20T21:18:17;2.25;;;2.05;;
48963;SDS011;34776;48.180;16.420;2023-12-20T21:20:44;2.28;;;1.80;;
48963;SDS011;34776;48.180;16.420;2023-12-20T21:23:09;5.38;;;2.13;;
48963;SDS011;34776;48.180;16.420;2023-12-20T21:25:35;2.42;;;1.63;;
48963;SDS011;34776;48.180;16.420;2023-12-20T21:28:00;5.25;;;2.10;;
48963;SDS011;34776;48.180;16.420;2023-12-20T21:30:26;3.63;;;2.17;;
48963;SDS011;34776;48.180;16.420;2023-12-20T21:32:52;2.80;;;2.00;;
48963;SDS011;34776;48.180;16.420;2023-12-20T21:35:18;4.30;;;2.85;;
48963;SDS011;34776;48.180;16.420;2023-12-20T21:37:44;2.75;;;1.85;;
48963;SDS011;34776;48.180;16.420;2023-12-20T21:40:10;2.33;;;2.13;;
48963;SDS011;34776;48.180;16.420;2023-12-20T21:42:36;3.45;;;1.60;;
48963;SDS011;34776;48.180;16.420;2023-12-20T21:45:02;2.45;;;1.70;;
48963;SDS011;34776;48.180;16.420;2023-12-20T21:47:33;4.20;;;1.70;;
48963;SDS011;34776;48.180;16.420;2023-12-20T21:49:58;2.92;;;2.15;;
48963;SDS011;34776;48.180;16.420;2023-12-20T21:52:24;3.95;;;1.90;;
48963;SDS011;34776;48.180;16.420;2023-12-20T21:54:49;4.80;;;2.00;;
48963;SDS011;34776;48.180;16.420;2023-12-20T21:57:14;3.70;;;1.90;;
48963;SDS011;34776;48.180;16.420;2023-12-20T21:59:39;3.72;;;1.67;;
48963;SDS011;34776;48.180;16.420;2023-12-20T22:02:05;5.85;;;1.67;;
48963;SDS011;34776;48.180;16.420;2023-12-20T22:04:32;3.10;;;1.98;;
48963;SDS011;34776;48.180;16.420;2023-12-20T22:06:57;3.45;;;1.90;;
48963;SDS011;34776;48.180;16.420;2023-12-20T22:11:57;25.27;;;11.20;;
48963;SDS011;34776;48.180;16.420;2023-12-20T22:14:25;2.22;;;1.60;;